sensor_id;sensor_type;location;lat;lon;timestamp;P1;durP1;ratioP1;P2;durP2;ratioP2
63089;SDS011;49174;43.198;27.824;2023-08-24T00:00:36;9.85;;;8.85;;
63089;SDS011;49174;43.198;27.824;2023-08-24T00:03:06;15.85;;;8.57;;
63089;SDS011;49174;43.198;27.824;2023-08-24T00:05:33;16.23;;;9.00;;
63089;SDS011;49174;43.198;27.824;2023-08-24T00:08:03;12.93;;;9.45;;
63089;SDS011;49174;43.198;27.824;2023-08-24T00:10:29;17.23;;;9.98;;
63089;SDS011;49174;43.198;27.824;2023-08-24T00:12:55;12.50;;;9.55;;
63089;SDS011;49174;43.198;27.824;2023-08-24T00:15:20;16.50;;;10.30;;
63089;SDS011;49174;43.198;27.824;2023-08-24T00:17:46;13.43;;;9.25;;
63089;SDS011;49174;43.198;27.824;2023-08-24T00:20:11;14.95;;;8.77;;
63089;SDS011;49174;43.198;27.824;2023-08-24T00:22:37;16.08;;;10.45;;
63089;SDS011;49174;43.198;27.824;2023-08-24T00:25:03;24.63;;;12.32;;
63089;SDS011;49174;43.198;27.824;2023-08-24T00:27:30;22.95;;;10.95;;
63089;SDS011;49174;43.198;27.824;2023-08-24T00:29:56;27.58;;;11.73;;
63089;SDS011;49174;43.198;27.824;2023-08-24T00:32:22;20.13;;;10.95;;
63089;SDS011;49174;43.198;27.824;2023-08-24T00:34:48;31.75;;;12.50;;
63089;SDS011;49174;43.198;27.824;2023-08-24T00:37:14;25.80;;;11.55;;
63089;SDS011;49174;43.198;27.824;2023-08-24T00:39:39;25.42;;;11.00;;
63089;SDS011;49174;43.198;27.824;2023-08-24T00:42:05;29.23;;;12.85;;
63089;SDS011;49174;43.198;27.824;2023-08-24T00:44:31;29.40;;;10.55;;
63089;SDS011;49174;43.198;27.824;2023-08-24T00:46:56;24.00;;;10.93;;
63089;SDS011;49174;43.198;27.824;2023-08-24T00:49:23;23.38;;;12.68;;
63089;SDS011;49174;43.198;27.824;2023-08-24T00:51:51;18.25;;;10.15;;
63089;SDS011;49174;43.198;27.824;2023-08-24T00:54:16;17.92;;;10.00;;
63089;SDS011;49174;43.198;27.824;2023-08-24T00:56:43;20.00;;;10.63;;
63089;SDS011;49174;43.198;27.824;2023-08-24T00:59:09;13.57;;;9.88;;
63089;SDS011;49174;43.198;27.824;2023-08-24T01:01:34;12.48;;;9.45;;
63089;SDS011;49174;43.198;27.824;2023-08-24T01:04:00;12.85;;;9.18;;
63089;SDS011;49174;43.198;27.824;2023-08-24T01:06:26;10.82;;;9.50;;
63089;SDS011;49174;43.198;27.824;2023-08-24T01:08:51;11.85;;;8.82;;
63089;SDS011;49174;43.198;27.824;2023-08-24T01:14:04;12.75;;;9.45;;
63089;SDS011;49174;43.198;27.824;2023-08-24T01:17:01;15.15;;;9.18;;
63089;SDS011;49174;43.198;27.824;2023-08-24T01:25:15;12.80;;;9.70;;
63089;SDS011;49174;43.198;27.824;2023-08-24T01:27:40;16.08;;;9.00;;
63089;SDS011;49174;43.198;27.824;2023-08-24T01:30:06;11.90;;;9.93;;
63089;SDS011;49174;43.198;27.824;2023-08-24T01:32:34;12.05;;;9.65;;
63089;SDS011;49174;43.198;27.824;2023-08-24T01:35:02;11.90;;;8.90;;
63089;SDS011;49174;43.198;27.824;2023-08-24T01:37:30;11.63;;;8.70;;
63089;SDS011;49174;43.198;27.824;2023-08-24T01:40:00;12.25;;;8.90;;
63089;SDS011;49174;43.198;27.824;2023-08-24T01:42:42;10.68;;;8.50;;
63089;SDS011;49174;43.198;27.824;2023-08-24T01:45:14;12.05;;;9.70;;
63089;SDS011;49174;43.198;27.824;2023-08-24T01:47:47;13.13;;;8.95;;
63089;SDS011;49174;43.198;27.824;2023-08-24T01:50:14;13.43;;;8.77;;
63089;SDS011;49174;43.198;27.824;2023-08-24T01:52:40;12.63;;;9.48;;
63089;SDS011;49174;43.198;27.824;2023-08-24T01:55:07;16.85;;;9.70;;
63089;SDS011;49174;43.198;27.824;2023-08-24T01:57:33;11.88;;;9.20;;
63089;SDS011;49174;43.198;27.824;2023-08-24T01:59:58;14.45;;;9.77;;
63089;SDS011;49174;43.198;27.824;2023-08-24T02:02:24;12.95;;;9.55;;
63089;SDS011;49174;43.198;27.824;2023-08-24T02:04:49;13.38;;;9.45;;
63089;SDS011;49174;43.198;27.824;2023-08-24T02:07:15;18.95;;;11.05;;
63089;SDS011;49174;43.198;27.824;2023-08-24T02:09:41;15.07;;;9.45;;
63089;SDS011;49174;43.198;27.824;2023-08-24T02:12:06;12.57;;;10.13;;
63089;SDS011;49174;43.198;27.824;2023-08-24T02:14:32;12.88;;;9.40;;
63089;SDS011;49174;43.198;27.824;2023-08-24T02:16:58;13.63;;;9.80;;
63089;SDS011;49174;43.198;27.824;2023-08-24T02:19:23;12.93;;;9.93;;
63089;SDS011;49174;43.198;27.824;2023-08-24T02:21:49;11.73;;;9.27;;
63089;SDS011;49174;43.198;27.824;2023-08-24T02:24:14;12.13;;;9.75;;
63089;SDS011;49174;43.198;27.824;2023-08-24T02:26:39;17.00;;;9.82;;
63089;SDS011;49174;43.198;27.824;2023-08-24T02:29:05;15.43;;;10.13;;
63089;SDS011;49174;43.198;27.824;2023-08-24T02:31:31;11.05;;;9.13;;
63089;SDS011;49174;43.198;27.824;2023-08-24T02:33:57;19.08;;;9.77;;
63089;SDS011;49174;43.198;27.824;2023-08-24T02:36:22;11.07;;;9.25;;
63089;SDS011;49174;43.198;27.824;2023-08-24T02:38:48;11.85;;;9.98;;
63089;SDS011;49174;43.198;27.824;2023-08-24T02:41:13;15.13;;;8.88;;
63089;SDS011;49174;43.198;27.824;2023-08-24T02:43:39;11.70;;;9.32;;
63089;SDS011;49174;43.198;27.824;2023-08-24T02:46:06;11.25;;;9.60;;
63089;SDS011;49174;43.198;27.824;2023-08-24T02:48:33;12.98;;;9.93;;
63089;SDS011;49174;43.198;27.824;2023-08-24T02:50:59;14.02;;;9.38;;
63089;SDS011;49174;43.198;27.824;2023-08-24T02:53:27;16.30;;;9.48;;
63089;SDS011;49174;43.198;27.824;2023-08-24T02:55:53;17.95;;;10.48;;
63089;SDS011;49174;43.198;27.824;2023-08-24T02:58:20;19.75;;;10.80;;
63089;SDS011;49174;43.198;27.824;2023-08-24T03:00:46;17.85;;;10.88;;
63089;SDS011;49174;43.198;27.824;2023-08-24T03:03:13;12.63;;;10.40;;
63089;SDS011;49174;43.198;27.824;2023-08-24T03:05:39;12.95;;;10.38;;
63089;SDS011;49174;43.198;27.824;2023-08-24T03:08:05;13.52;;;10.48;;
63089;SDS011;49174;43.198;27.824;2023-08-24T03:10:31;14.20;;;10.52;;
63089;SDS011;49174;43.198;27.824;2023-08-24T03:12:59;11.13;;;9.20;;
63089;SDS011;49174;43.198;27.824;2023-08-24T03:15:25;12.25;;;9.80;;
63089;SDS011;49174;43.198;27.824;2023-08-24T03:17:51;11.57;;;8.80;;
63089;SDS011;49174;43.198;27.824;2023-08-24T03:20:17;13.05;;;9.95;;
63089;SDS011;49174;43.198;27.824;2023-08-24T03:22:44;13.57;;;10.20;;
63089;SDS011;49174;43.198;27.824;2023-08-24T03:25:09;15.15;;;10.20;;
63089;SDS011;49174;43.198;27.824;2023-08-24T03:27:34;14.73;;;10.20;;
63089;SDS011;49174;43.198;27.824;2023-08-24T03:30:00;13.75;;;11.23;;
63089;SDS011;49174;43.198;27.824;2023-08-24T03:32:27;12.00;;;10.20;;
63089;SDS011;49174;43.198;27.824;2023-08-24T03:34:58;15.68;;;10.70;;
63089;SDS011;49174;43.198;27.824;2023-08-24T03:37:24;14.98;;;10.52;;
63089;SDS011;49174;43.198;27.824;2023-08-24T03:39:50;12.93;;;10.55;;
63089;SDS011;49174;43.198;27.824;2023-08-24T03:42:15;16.55;;;10.73;;
63089;SDS011;49174;43.198;27.824;2023-08-24T03:44:41;12.77;;;10.10;;
63089;SDS011;49174;43.198;27.824;2023-08-24T03:47:06;16.35;;;11.07;;
63089;SDS011;49174;43.198;27.824;2023-08-24T03:49:32;14.70;;;10.13;;
63089;SDS011;49174;43.198;27.824;2023-08-24T03:51:58;15.63;;;11.35;;
63089;SDS011;49174;43.198;27.824;2023-08-24T03:54:23;15.75;;;11.00;;
63089;SDS011;49174;43.198;27.824;2023-08-24T03:56:49;14.57;;;10.77;;
63089;SDS011;49174;43.198;27.824;2023-08-24T03:59:14;18.60;;;10.50;;
63089;SDS011;49174;43.198;27.824;2023-08-24T04:01:39;17.13;;;11.73;;
63089;SDS011;49174;43.198;27.824;2023-08-24T04:04:05;12.98;;;10.88;;
63089;SDS011;49174;43.198;27.824;2023-08-24T04:06:30;16.05;;;11.32;;
63089;SDS011;49174;43.198;27.824;2023-08-24T04:08:56;13.48;;;10.23;;
63089;SDS011;49174;43.198;27.824;2023-08-24T04:11:22;15.07;;;11.20;;
63089;SDS011;49174;43.198;27.824;2023-08-24T04:13:47;13.77;;;10.77;;
63089;SDS011;49174;43.198;27.824;2023-08-24T04:16:12;13.85;;;9.85;;
63089;SDS011;49174;43.198;27.824;2023-08-24T04:18:38;13.40;;;11.05;;
63089;SDS011;49174;43.198;27.824;2023-08-24T04:21:05;14.02;;;10.18;;
63089;SDS011;49174;43.198;27.824;2023-08-24T04:23:31;12.95;;;10.45;;
63089;SDS011;49174;43.198;27.824;2023-08-24T04:25:57;14.27;;;10.32;;
63089;SDS011;49174;43.198;27.824;2023-08-24T04:28:23;13.43;;;11.15;;
63089;SDS011;49174;43.198;27.824;2023-08-24T04:30:56;16.77;;;11.85;;
63089;SDS011;49174;43.198;27.824;2023-08-24T04:33:24;18.02;;;10.95;;
63089;SDS011;49174;43.198;27.824;2023-08-24T04:35:50;13.02;;;10.70;;
63089;SDS011;49174;43.198;27.824;2023-08-24T04:38:17;12.73;;;10.05;;
63089;SDS011;49174;43.198;27.824;2023-08-24T04:40:50;12.48;;;9.75;;
63089;SDS011;49174;43.198;27.824;2023-08-24T04:43:18;13.27;;;10.60;;
63089;SDS011;49174;43.198;27.824;2023-08-24T04:45:47;20.65;;;10.85;;
63089;SDS011;49174;43.198;27.824;2023-08-24T04:48:14;16.00;;;10.30;;
63089;SDS011;49174;43.198;27.824;2023-08-24T04:50:41;11.57;;;10.25;;
63089;SDS011;49174;43.198;27.824;2023-08-24T04:53:08;14.35;;;11.45;;
63089;SDS011;49174;43.198;27.824;2023-08-24T04:55:34;12.75;;;10.60;;
63089;SDS011;49174;43.198;27.824;2023-08-24T04:57:59;12.93;;;10.00;;
63089;SDS011;49174;43.198;27.824;2023-08-24T05:00:25;12.60;;;10.50;;
63089;SDS011;49174;43.198;27.824;2023-08-24T05:02:50;12.20;;;10.80;;
63089;SDS011;49174;43.198;27.824;2023-08-24T05:05:16;14.18;;;11.55;;
63089;SDS011;49174;43.198;27.824;2023-08-24T05:07:42;14.70;;;10.63;;
63089;SDS011;49174;43.198;27.824;2023-08-24T05:10:08;12.63;;;10.77;;
63089;SDS011;49174;43.198;27.824;2023-08-24T05:12:34;18.30;;;11.27;;
63089;SDS011;49174;43.198;27.824;2023-08-24T05:15:04;13.85;;;12.07;;
63089;SDS011;49174;43.198;27.824;2023-08-24T05:17:30;13.52;;;11.07;;
63089;SDS011;49174;43.198;27.824;2023-08-24T05:19:57;14.35;;;11.30;;
63089;SDS011;49174;43.198;27.824;2023-08-24T05:22:24;15.38;;;11.82;;
63089;SDS011;49174;43.198;27.824;2023-08-24T05:24:49;16.70;;;12.85;;
63089;SDS011;49174;43.198;27.824;2023-08-24T05:27:15;12.70;;;10.95;;
63089;SDS011;49174;43.198;27.824;2023-08-24T05:29:43;15.82;;;12.15;;
63089;SDS011;49174;43.198;27.824;2023-08-24T05:32:09;16.02;;;13.43;;
63089;SDS011;49174;43.198;27.824;2023-08-24T05:34:35;17.38;;;13.02;;
63089;SDS011;49174;43.198;27.824;2023-08-24T05:37:01;14.75;;;12.65;;
63089;SDS011;49174;43.198;27.824;2023-08-24T05:39:26;15.90;;;14.20;;
63089;SDS011;49174;43.198;27.824;2023-08-24T05:41:52;18.40;;;13.15;;
63089;SDS011;49174;43.198;27.824;2023-08-24T05:44:18;20.17;;;12.25;;
63089;SDS011;49174;43.198;27.824;2023-08-24T05:46:45;13.73;;;11.90;;
63089;SDS011;49174;43.198;27.824;2023-08-24T05:49:11;14.93;;;12.13;;
63089;SDS011;49174;43.198;27.824;2023-08-24T05:51:36;17.55;;;13.55;;
63089;SDS011;49174;43.198;27.824;2023-08-24T05:54:02;15.20;;;12.23;;
63089;SDS011;49174;43.198;27.824;2023-08-24T05:56:28;13.85;;;12.43;;
63089;SDS011;49174;43.198;27.824;2023-08-24T05:58:54;15.02;;;12.25;;
63089;SDS011;49174;43.198;27.824;2023-08-24T06:01:20;16.67;;;12.50;;
63089;SDS011;49174;43.198;27.824;2023-08-24T06:03:45;21.50;;;12.48;;
63089;SDS011;49174;43.198;27.824;2023-08-24T06:06:11;13.30;;;11.88;;
63089;SDS011;49174;43.198;27.824;2023-08-24T06:08:37;15.88;;;12.27;;
63089;SDS011;49174;43.198;27.824;2023-08-24T06:11:02;17.67;;;12.52;;
63089;SDS011;49174;43.198;27.824;2023-08-24T06:13:28;17.05;;;12.35;;
63089;SDS011;49174;43.198;27.824;2023-08-24T06:15:54;14.32;;;11.40;;
63089;SDS011;49174;43.198;27.824;2023-08-24T06:18:19;12.88;;;11.60;;
63089;SDS011;49174;43.198;27.824;2023-08-24T06:20:45;15.85;;;11.75;;
63089;SDS011;49174;43.198;27.824;2023-08-24T06:23:14;12.23;;;9.90;;
63089;SDS011;49174;43.198;27.824;2023-08-24T06:25:43;12.48;;;11.07;;
63089;SDS011;49174;43.198;27.824;2023-08-24T06:28:09;11.45;;;10.32;;
63089;SDS011;49174;43.198;27.824;2023-08-24T06:30:39;12.43;;;10.20;;
63089;SDS011;49174;43.198;27.824;2023-08-24T06:33:12;12.38;;;9.82;;
63089;SDS011;49174;43.198;27.824;2023-08-24T06:35:40;12.90;;;10.98;;
63089;SDS011;49174;43.198;27.824;2023-08-24T06:38:05;18.73;;;11.23;;
63089;SDS011;49174;43.198;27.824;2023-08-24T06:40:32;14.48;;;10.50;;
63089;SDS011;49174;43.198;27.824;2023-08-24T06:42:58;21.77;;;11.48;;
63089;SDS011;49174;43.198;27.824;2023-08-24T06:45:23;20.83;;;11.30;;
63089;SDS011;49174;43.198;27.824;2023-08-24T06:47:49;13.43;;;11.02;;
63089;SDS011;49174;43.198;27.824;2023-08-24T06:50:16;12.95;;;10.27;;
63089;SDS011;49174;43.198;27.824;2023-08-24T06:52:42;11.15;;;8.82;;
63089;SDS011;49174;43.198;27.824;2023-08-24T06:55:10;15.63;;;10.25;;
63089;SDS011;49174;43.198;27.824;2023-08-24T06:57:37;12.88;;;9.88;;
63089;SDS011;49174;43.198;27.824;2023-08-24T07:00:03;12.90;;;9.80;;
63089;SDS011;49174;43.198;27.824;2023-08-24T07:02:38;13.65;;;9.52;;
63089;SDS011;49174;43.198;27.824;2023-08-24T07:05:03;13.57;;;10.10;;
63089;SDS011;49174;43.198;27.824;2023-08-24T07:07:34;11.85;;;10.65;;
63089;SDS011;49174;43.198;27.824;2023-08-24T07:10:00;10.30;;;8.90;;
63089;SDS011;49174;43.198;27.824;2023-08-24T07:12:26;10.77;;;9.63;;
63089;SDS011;49174;43.198;27.824;2023-08-24T07:14:51;11.35;;;9.35;;
63089;SDS011;49174;43.198;27.824;2023-08-24T07:17:17;11.43;;;9.65;;
63089;SDS011;49174;43.198;27.824;2023-08-24T07:19:43;10.68;;;9.43;;
63089;SDS011;49174;43.198;27.824;2023-08-24T07:22:08;10.50;;;9.40;;
63089;SDS011;49174;43.198;27.824;2023-08-24T07:24:34;10.45;;;9.45;;
63089;SDS011;49174;43.198;27.824;2023-08-24T07:27:01;13.13;;;9.00;;
63089;SDS011;49174;43.198;27.824;2023-08-24T07:29:28;10.20;;;9.20;;
63089;SDS011;49174;43.198;27.824;2023-08-24T07:31:54;8.65;;;7.53;;
63089;SDS011;49174;43.198;27.824;2023-08-24T07:34:20;10.23;;;7.75;;
63089;SDS011;49174;43.198;27.824;2023-08-24T07:36:47;12.00;;;7.97;;
63089;SDS011;49174;43.198;27.824;2023-08-24T07:39:14;8.60;;;7.75;;
63089;SDS011;49174;43.198;27.824;2023-08-24T07:41:40;8.77;;;7.88;;
63089;SDS011;49174;43.198;27.824;2023-08-24T07:44:06;8.27;;;7.20;;
63089;SDS011;49174;43.198;27.824;2023-08-24T07:46:32;8.90;;;7.38;;
63089;SDS011;49174;43.198;27.824;2023-08-24T07:48:58;8.35;;;7.28;;
63089;SDS011;49174;43.198;27.824;2023-08-24T07:51:24;9.40;;;8.00;;
63089;SDS011;49174;43.198;27.824;2023-08-24T07:53:49;10.85;;;8.15;;
63089;SDS011;49174;43.198;27.824;2023-08-24T07:56:17;9.85;;;7.45;;
63089;SDS011;49174;43.198;27.824;2023-08-24T07:58:44;8.43;;;7.63;;
63089;SDS011;49174;43.198;27.824;2023-08-24T08:01:10;10.27;;;8.57;;
63089;SDS011;49174;43.198;27.824;2023-08-24T08:03:36;10.15;;;7.50;;
63089;SDS011;49174;43.198;27.824;2023-08-24T08:06:02;8.00;;;7.20;;
63089;SDS011;49174;43.198;27.824;2023-08-24T08:08:28;8.60;;;7.80;;
63089;SDS011;49174;43.198;27.824;2023-08-24T08:10:57;8.40;;;7.60;;
63089;SDS011;49174;43.198;27.824;2023-08-24T08:13:25;9.93;;;7.57;;
63089;SDS011;49174;43.198;27.824;2023-08-24T08:15:51;7.97;;;6.88;;
63089;SDS011;49174;43.198;27.824;2023-08-24T08:18:19;9.60;;;7.60;;
63089;SDS011;49174;43.198;27.824;2023-08-24T08:20:44;9.38;;;7.03;;
63089;SDS011;49174;43.198;27.824;2023-08-24T08:23:10;8.52;;;7.65;;
63089;SDS011;49174;43.198;27.824;2023-08-24T08:25:35;8.70;;;7.90;;
63089;SDS011;49174;43.198;27.824;2023-08-24T08:28:01;9.00;;;7.22;;
63089;SDS011;49174;43.198;27.824;2023-08-24T08:30:26;8.85;;;6.82;;
63089;SDS011;49174;43.198;27.824;2023-08-24T08:32:52;8.15;;;7.00;;
63089;SDS011;49174;43.198;27.824;2023-08-24T08:35:19;7.65;;;6.68;;
63089;SDS011;49174;43.198;27.824;2023-08-24T08:37:46;8.60;;;7.80;;
63089;SDS011;49174;43.198;27.824;2023-08-24T08:40:14;8.15;;;7.35;;
63089;SDS011;49174;43.198;27.824;2023-08-24T08:42:40;8.35;;;7.47;;
63089;SDS011;49174;43.198;27.824;2023-08-24T08:45:08;9.65;;;7.38;;
63089;SDS011;49174;43.198;27.824;2023-08-24T08:47:34;11.10;;;6.75;;
63089;SDS011;49174;43.198;27.824;2023-08-24T08:50:01;9.38;;;7.20;;
63089;SDS011;49174;43.198;27.824;2023-08-24T08:52:33;7.30;;;6.60;;
63089;SDS011;49174;43.198;27.824;2023-08-24T08:54:59;7.97;;;7.13;;
63089;SDS011;49174;43.198;27.824;2023-08-24T08:57:25;7.10;;;6.40;;
63089;SDS011;49174;43.198;27.824;2023-08-24T08:59:51;7.20;;;6.50;;
63089;SDS011;49174;43.198;27.824;2023-08-24T09:02:18;6.53;;;5.93;;
63089;SDS011;49174;43.198;27.824;2023-08-24T09:04:45;11.55;;;6.60;;
63089;SDS011;49174;43.198;27.824;2023-08-24T09:07:13;9.25;;;6.03;;
63089;SDS011;49174;43.198;27.824;2023-08-24T09:09:39;7.25;;;6.55;;
63089;SDS011;49174;43.198;27.824;2023-08-24T09:12:05;6.40;;;5.80;;
63089;SDS011;49174;43.198;27.824;2023-08-24T09:14:32;6.30;;;5.70;;
63089;SDS011;49174;43.198;27.824;2023-08-24T09:16:58;7.40;;;5.25;;
63089;SDS011;49174;43.198;27.824;2023-08-24T09:19:30;7.97;;;5.03;;
63089;SDS011;49174;43.198;27.824;2023-08-24T09:22:04;6.85;;;5.35;;
63089;SDS011;49174;43.198;27.824;2023-08-24T09:24:30;7.38;;;4.85;;
63089;SDS011;49174;43.198;27.824;2023-08-24T09:27:15;4.85;;;4.45;;
63089;SDS011;49174;43.198;27.824;2023-08-24T09:29:42;7.22;;;4.85;;
63089;SDS011;49174;43.198;27.824;2023-08-24T09:32:08;6.40;;;4.95;;
63089;SDS011;49174;43.198;27.824;2023-08-24T09:34:35;8.93;;;5.32;;
63089;SDS011;49174;43.198;27.824;2023-08-24T09:37:02;5.95;;;5.05;;
63089;SDS011;49174;43.198;27.824;2023-08-24T09:39:30;8.70;;;5.75;;
63089;SDS011;49174;43.198;27.824;2023-08-24T09:41:58;5.97;;;4.78;;
63089;SDS011;49174;43.198;27.824;2023-08-24T09:44:26;6.65;;;5.60;;
63089;SDS011;49174;43.198;27.824;2023-08-24T09:46:53;7.20;;;5.88;;
63089;SDS011;49174;43.198;27.824;2023-08-24T09:49:19;6.18;;;5.40;;
63089;SDS011;49174;43.198;27.824;2023-08-24T09:51:44;6.70;;;5.70;;
63089;SDS011;49174;43.198;27.824;2023-08-24T09:54:11;7.65;;;5.55;;
63089;SDS011;49174;43.198;27.824;2023-08-24T09:56:39;8.88;;;6.22;;
63089;SDS011;49174;43.198;27.824;2023-08-24T09:59:15;8.73;;;6.32;;
63089;SDS011;49174;43.198;27.824;2023-08-24T10:01:46;12.77;;;6.75;;
63089;SDS011;49174;43.198;27.824;2023-08-24T10:04:33;10.65;;;6.82;;
63089;SDS011;49174;43.198;27.824;2023-08-24T10:07:04;9.88;;;6.38;;
63089;SDS011;49174;43.198;27.824;2023-08-24T10:09:35;8.07;;;7.22;;
63089;SDS011;49174;43.198;27.824;2023-08-24T10:12:05;8.80;;;6.93;;
63089;SDS011;49174;43.198;27.824;2023-08-24T10:14:44;7.95;;;7.22;;
63089;SDS011;49174;43.198;27.824;2023-08-24T10:17:14;9.20;;;6.53;;
63089;SDS011;49174;43.198;27.824;2023-08-24T10:19:41;8.10;;;6.55;;
63089;SDS011;49174;43.198;27.824;2023-08-24T10:22:07;10.13;;;6.40;;
63089;SDS011;49174;43.198;27.824;2023-08-24T10:24:34;9.98;;;5.78;;
63089;SDS011;49174;43.198;27.824;2023-08-24T10:27:01;6.75;;;5.70;;
63089;SDS011;49174;43.198;27.824;2023-08-24T10:29:29;9.20;;;6.65;;
63089;SDS011;49174;43.198;27.824;2023-08-24T10:31:55;6.70;;;6.00;;
63089;SDS011;49174;43.198;27.824;2023-08-24T10:34:21;6.40;;;5.07;;
63089;SDS011;49174;43.198;27.824;2023-08-24T10:36:48;15.55;;;5.40;;
63089;SDS011;49174;43.198;27.824;2023-08-24T10:39:14;10.43;;;5.80;;
63089;SDS011;49174;43.198;27.824;2023-08-24T10:41:50;6.35;;;5.53;;
63089;SDS011;49174;43.198;27.824;2023-08-24T10:44:21;5.38;;;4.88;;
63089;SDS011;49174;43.198;27.824;2023-08-24T10:54:50;7.10;;;5.13;;
63089;SDS011;49174;43.198;27.824;2023-08-24T10:57:21;6.20;;;4.78;;
63089;SDS011;49174;43.198;27.824;2023-08-24T11:02:48;6.18;;;4.63;;
63089;SDS011;49174;43.198;27.824;2023-08-24T11:07:47;6.93;;;5.43;;
63089;SDS011;49174;43.198;27.824;2023-08-24T11:10:17;5.97;;;5.38;;
63089;SDS011;49174;43.198;27.824;2023-08-24T11:15:37;7.28;;;5.75;;
63089;SDS011;49174;43.198;27.824;2023-08-24T11:18:23;6.28;;;5.40;;
63089;SDS011;49174;43.198;27.824;2023-08-24T11:20:52;7.97;;;5.55;;
63089;SDS011;49174;43.198;27.824;2023-08-24T11:23:19;8.25;;;6.85;;
63089;SDS011;49174;43.198;27.824;2023-08-24T11:25:46;7.38;;;5.60;;
63089;SDS011;49174;43.198;27.824;2023-08-24T11:28:19;5.53;;;4.85;;
63089;SDS011;49174;43.198;27.824;2023-08-24T11:30:45;6.72;;;5.82;;
63089;SDS011;49174;43.198;27.824;2023-08-24T11:33:12;7.15;;;5.40;;
63089;SDS011;49174;43.198;27.824;2023-08-24T11:35:42;10.98;;;5.95;;
63089;SDS011;49174;43.198;27.824;2023-08-24T11:38:09;9.38;;;5.72;;
63089;SDS011;49174;43.198;27.824;2023-08-24T11:40:36;8.27;;;5.68;;
63089;SDS011;49174;43.198;27.824;2023-08-24T11:43:02;8.02;;;5.80;;
63089;SDS011;49174;43.198;27.824;2023-08-24T11:45:29;7.45;;;6.13;;
63089;SDS011;49174;43.198;27.824;2023-08-24T11:48:01;6.38;;;5.78;;
63089;SDS011;49174;43.198;27.824;2023-08-24T11:50:29;7.82;;;5.95;;
63089;SDS011;49174;43.198;27.824;2023-08-24T11:52:56;6.78;;;6.10;;
63089;SDS011;49174;43.198;27.824;2023-08-24T11:55:22;9.55;;;7.00;;
63089;SDS011;49174;43.198;27.824;2023-08-24T11:57:49;9.25;;;7.55;;
63089;SDS011;49174;43.198;27.824;2023-08-24T12:00:16;9.95;;;6.95;;
63089;SDS011;49174;43.198;27.824;2023-08-24T12:02:43;11.23;;;6.50;;
63089;SDS011;49174;43.198;27.824;2023-08-24T12:05:25;7.18;;;6.45;;
63089;SDS011;49174;43.198;27.824;2023-08-24T12:07:52;8.85;;;7.15;;
63089;SDS011;49174;43.198;27.824;2023-08-24T12:10:19;6.63;;;5.93;;
63089;SDS011;49174;43.198;27.824;2023-08-24T12:12:46;7.93;;;7.03;;
63089;SDS011;49174;43.198;27.824;2023-08-24T12:15:15;8.27;;;7.35;;
63089;SDS011;49174;43.198;27.824;2023-08-24T12:17:43;8.27;;;7.47;;
63089;SDS011;49174;43.198;27.824;2023-08-24T12:20:16;8.93;;;7.43;;
63089;SDS011;49174;43.198;27.824;2023-08-24T12:22:43;8.55;;;7.75;;
63089;SDS011;49174;43.198;27.824;2023-08-24T12:25:09;8.45;;;7.30;;
63089;SDS011;49174;43.198;27.824;2023-08-24T12:27:34;8.82;;;7.13;;
63089;SDS011;49174;43.198;27.824;2023-08-24T12:30:01;10.23;;;6.88;;
63089;SDS011;49174;43.198;27.824;2023-08-24T12:32:31;10.93;;;7.57;;
63089;SDS011;49174;43.198;27.824;2023-08-24T12:35:07;8.27;;;7.43;;
63089;SDS011;49174;43.198;27.824;2023-08-24T12:37:35;8.50;;;7.63;;
63089;SDS011;49174;43.198;27.824;2023-08-24T12:40:01;8.70;;;7.90;;
63089;SDS011;49174;43.198;27.824;2023-08-24T12:42:30;9.38;;;8.43;;
63089;SDS011;49174;43.198;27.824;2023-08-24T12:44:56;7.10;;;6.40;;
63089;SDS011;49174;43.198;27.824;2023-08-24T12:47:22;6.78;;;5.72;;
63089;SDS011;49174;43.198;27.824;2023-08-24T12:49:47;9.10;;;6.47;;
63089;SDS011;49174;43.198;27.824;2023-08-24T12:52:13;7.93;;;6.25;;
63089;SDS011;49174;43.198;27.824;2023-08-24T12:54:39;9.65;;;7.40;;
63089;SDS011;49174;43.198;27.824;2023-08-24T12:57:04;7.78;;;6.80;;
63089;SDS011;49174;43.198;27.824;2023-08-24T12:59:30;7.28;;;6.47;;
63089;SDS011;49174;43.198;27.824;2023-08-24T13:01:55;8.35;;;6.82;;
63089;SDS011;49174;43.198;27.824;2023-08-24T13:04:21;9.55;;;7.18;;
63089;SDS011;49174;43.198;27.824;2023-08-24T13:06:46;7.70;;;7.00;;
63089;SDS011;49174;43.198;27.824;2023-08-24T13:09:12;7.35;;;6.68;;
63089;SDS011;49174;43.198;27.824;2023-08-24T13:11:40;8.43;;;7.22;;
63089;SDS011;49174;43.198;27.824;2023-08-24T13:14:06;9.32;;;7.18;;
63089;SDS011;49174;43.198;27.824;2023-08-24T13:16:31;8.30;;;7.40;;
63089;SDS011;49174;43.198;27.824;2023-08-24T13:18:57;8.15;;;6.95;;
63089;SDS011;49174;43.198;27.824;2023-08-24T13:21:24;8.77;;;7.78;;
63089;SDS011;49174;43.198;27.824;2023-08-24T13:23:49;7.15;;;6.45;;
63089;SDS011;49174;43.198;27.824;2023-08-24T13:26:18;7.75;;;6.63;;
63089;SDS011;49174;43.198;27.824;2023-08-24T13:28:45;8.07;;;7.28;;
63089;SDS011;49174;43.198;27.824;2023-08-24T13:31:12;8.35;;;7.15;;
63089;SDS011;49174;43.198;27.824;2023-08-24T13:33:37;7.10;;;6.50;;
63089;SDS011;49174;43.198;27.824;2023-08-24T13:36:03;11.13;;;7.70;;
63089;SDS011;49174;43.198;27.824;2023-08-24T13:38:29;8.93;;;7.70;;
63089;SDS011;49174;43.198;27.824;2023-08-24T13:40:55;8.15;;;7.18;;
63089;SDS011;49174;43.198;27.824;2023-08-24T13:43:21;8.85;;;7.65;;
63089;SDS011;49174;43.198;27.824;2023-08-24T13:45:47;8.35;;;7.35;;
63089;SDS011;49174;43.198;27.824;2023-08-24T13:48:12;9.50;;;6.93;;
63089;SDS011;49174;43.198;27.824;2023-08-24T13:50:38;7.55;;;6.80;;
63089;SDS011;49174;43.198;27.824;2023-08-24T13:53:03;8.80;;;6.72;;
63089;SDS011;49174;43.198;27.824;2023-08-24T13:55:29;8.27;;;6.97;;
63089;SDS011;49174;43.198;27.824;2023-08-24T13:57:55;7.30;;;6.60;;
63089;SDS011;49174;43.198;27.824;2023-08-24T14:00:20;7.63;;;6.60;;
63089;SDS011;49174;43.198;27.824;2023-08-24T14:02:48;8.82;;;6.97;;
63089;SDS011;49174;43.198;27.824;2023-08-24T14:05:14;7.82;;;6.60;;
63089;SDS011;49174;43.198;27.824;2023-08-24T14:07:39;8.40;;;6.55;;
63089;SDS011;49174;43.198;27.824;2023-08-24T14:10:05;7.57;;;6.50;;
63089;SDS011;49174;43.198;27.824;2023-08-24T14:12:32;7.60;;;6.95;;
63089;SDS011;49174;43.198;27.824;2023-08-24T14:14:59;8.27;;;6.43;;
63089;SDS011;49174;43.198;27.824;2023-08-24T14:17:24;10.77;;;6.78;;
63089;SDS011;49174;43.198;27.824;2023-08-24T14:19:50;11.35;;;7.15;;
63089;SDS011;49174;43.198;27.824;2023-08-24T14:22:15;12.07;;;7.43;;
63089;SDS011;49174;43.198;27.824;2023-08-24T14:24:41;8.57;;;7.15;;
63089;SDS011;49174;43.198;27.824;2023-08-24T14:27:06;7.82;;;7.00;;
63089;SDS011;49174;43.198;27.824;2023-08-24T14:29:32;7.85;;;7.05;;
63089;SDS011;49174;43.198;27.824;2023-08-24T14:31:57;9.52;;;6.60;;
63089;SDS011;49174;43.198;27.824;2023-08-24T14:34:23;9.85;;;6.90;;
63089;SDS011;49174;43.198;27.824;2023-08-24T14:36:48;8.32;;;6.95;;
63089;SDS011;49174;43.198;27.824;2023-08-24T14:39:14;9.68;;;6.75;;
63089;SDS011;49174;43.198;27.824;2023-08-24T14:41:40;10.30;;;7.15;;
63089;SDS011;49174;43.198;27.824;2023-08-24T14:44:05;8.80;;;6.95;;
63089;SDS011;49174;43.198;27.824;2023-08-24T14:46:31;7.20;;;6.45;;